sensor_id;sensor_type;location;lat;lon;timestamp;P1;durP1;ratioP1;P2;durP2;ratioP2
28796;SDS011;24974;54.444;18.560;2022-09-09T05:05:17;13.25;;;8.98;;
28796;SDS011;24974;54.444;18.560;2022-09-09T05:07:51;11.57;;;8.82;;
28796;SDS011;24974;54.444;18.560;2022-09-09T05:10:23;17.15;;;8.48;;
28796;SDS011;24974;54.444;18.560;2022-09-09T05:12:54;12.88;;;9.35;;
28796;SDS011;24974;54.444;18.560;2022-09-09T05:15:27;16.83;;;9.75;;
28796;SDS011;24974;54.444;18.560;2022-09-09T05:17:59;14.90;;;11.15;;
28796;SDS011;24974;54.444;18.560;2022-09-09T05:20:33;19.83;;;10.13;;
28796;SDS011;24974;54.444;18.560;2022-09-09T05:23:05;15.85;;;11.20;;
28796;SDS011;24974;54.444;18.560;2022-09-09T05:25:37;14.77;;;9.70;;
28796;SDS011;24974;54.444;18.560;2022-09-09T05:28:09;16.08;;;10.63;;
28796;SDS011;24974;54.444;18.560;2022-09-09T05:30:41;17.63;;;11.40;;
28796;SDS011;24974;54.444;18.560;2022-09-09T05:33:12;16.98;;;11.23;;
28796;SDS011;24974;54.444;18.560;2022-09-09T05:35:44;17.20;;;11.85;;
28796;SDS011;24974;54.444;18.560;2022-09-09T05:38:14;19.77;;;10.80;;
28796;SDS011;24974;54.444;18.560;2022-09-09T05:40:49;13.60;;;9.98;;
28796;SDS011;24974;54.444;18.560;2022-09-09T05:43:20;15.20;;;8.35;;
28796;SDS011;24974;54.444;18.560;2022-09-09T05:46:05;12.85;;;8.77;;
28796;SDS011;24974;54.444;18.560;2022-09-09T05:48:42;12.55;;;8.40;;
28796;SDS011;24974;54.444;18.560;2022-09-09T05:51:15;12.70;;;8.05;;
28796;SDS011;24974;54.444;18.560;2022-09-09T05:53:48;11.70;;;7.65;;
28796;SDS011;24974;54.444;18.560;2022-09-09T05:56:22;9.43;;;6.07;;
28796;SDS011;24974;54.444;18.560;2022-09-09T05:58:56;10.48;;;7.28;;
28796;SDS011;24974;54.444;18.560;2022-09-09T06:01:29;7.18;;;6.25;;
28796;SDS011;24974;54.444;18.560;2022-09-09T06:04:06;12.05;;;6.50;;
28796;SDS011;24974;54.444;18.560;2022-09-09T06:06:38;8.38;;;5.88;;
28796;SDS011;24974;54.444;18.560;2022-09-09T06:09:17;10.43;;;7.55;;
28796;SDS011;24974;54.444;18.560;2022-09-09T06:11:48;11.10;;;7.75;;
28796;SDS011;24974;54.444;18.560;2022-09-09T06:14:19;9.52;;;6.47;;
28796;SDS011;24974;54.444;18.560;2022-09-09T06:16:52;9.98;;;6.78;;
28796;SDS011;24974;54.444;18.560;2022-09-09T06:19:26;15.60;;;6.68;;
28796;SDS011;24974;54.444;18.560;2022-09-09T06:22:00;8.55;;;6.60;;
28796;SDS011;24974;54.444;18.560;2022-09-09T06:24:33;12.20;;;6.72;;
28796;SDS011;24974;54.444;18.560;2022-09-09T06:27:06;11.00;;;6.20;;
28796;SDS011;24974;54.444;18.560;2022-09-09T06:29:39;10.52;;;7.10;;
28796;SDS011;24974;54.444;18.560;2022-09-09T06:32:11;7.93;;;7.10;;
28796;SDS011;24974;54.444;18.560;2022-09-09T06:34:42;8.30;;;7.22;;
28796;SDS011;24974;54.444;18.560;2022-09-09T06:37:15;8.20;;;7.10;;
28796;SDS011;24974;54.444;18.560;2022-09-09T06:39:51;8.13;;;6.45;;
28796;SDS011;24974;54.444;18.560;2022-09-09T06:42:22;10.48;;;6.70;;
28796;SDS011;24974;54.444;18.560;2022-09-09T06:44:53;11.75;;;7.25;;
28796;SDS011;24974;54.444;18.560;2022-09-09T06:47:38;8.57;;;5.80;;
28796;SDS011;24974;54.444;18.560;2022-09-09T06:50:09;11.23;;;5.47;;
28796;SDS011;24974;54.444;18.560;2022-09-09T06:52:42;7.53;;;5.40;;
28796;SDS011;24974;54.444;18.560;2022-09-09T06:55:17;9.38;;;6.68;;
28796;SDS011;24974;54.444;18.560;2022-09-09T06:57:48;8.80;;;5.55;;
28796;SDS011;24974;54.444;18.560;2022-09-09T07:00:25;5.68;;;5.13;;
28796;SDS011;24974;54.444;18.560;2022-09-09T07:02:56;8.75;;;6.40;;
28796;SDS011;24974;54.444;18.560;2022-09-09T07:05:27;7.50;;;6.18;;
28796;SDS011;24974;54.444;18.560;2022-09-09T07:07:58;7.20;;;6.40;;
28796;SDS011;24974;54.444;18.560;2022-09-09T07:10:30;10.30;;;6.72;;
28796;SDS011;24974;54.444;18.560;2022-09-09T07:13:01;9.45;;;5.57;;
28796;SDS011;24974;54.444;18.560;2022-09-09T07:15:32;8.07;;;5.20;;
28796;SDS011;24974;54.444;18.560;2022-09-09T07:18:04;6.68;;;5.40;;
28796;SDS011;24974;54.444;18.560;2022-09-09T07:20:35;14.27;;;5.30;;
28796;SDS011;24974;54.444;18.560;2022-09-09T07:23:06;8.63;;;5.75;;
28796;SDS011;24974;54.444;18.560;2022-09-09T07:25:38;10.35;;;6.18;;
28796;SDS011;24974;54.444;18.560;2022-09-09T07:28:16;7.53;;;5.80;;
28796;SDS011;24974;54.444;18.560;2022-09-09T07:30:57;7.43;;;5.97;;
28796;SDS011;24974;54.444;18.560;2022-09-09T07:33:33;7.53;;;5.80;;
28796;SDS011;24974;54.444;18.560;2022-09-09T07:36:07;11.25;;;5.85;;
28796;SDS011;24974;54.444;18.560;2022-09-09T07:39:03;9.82;;;6.03;;
28796;SDS011;24974;54.444;18.560;2022-09-09T07:41:46;9.25;;;6.53;;
28796;SDS011;24974;54.444;18.560;2022-09-09T07:44:21;7.28;;;6.53;;
28796;SDS011;24974;54.444;18.560;2022-09-09T07:47:14;18.35;;;6.47;;
28796;SDS011;24974;54.444;18.560;2022-09-09T07:49:49;7.75;;;6.80;;
28796;SDS011;24974;54.444;18.560;2022-09-09T07:52:25;10.32;;;6.28;;
28796;SDS011;24974;54.444;18.560;2022-09-09T07:55:00;8.13;;;6.95;;
28796;SDS011;24974;54.444;18.560;2022-09-09T07:57:33;9.52;;;6.50;;
28796;SDS011;24974;54.444;18.560;2022-09-09T08:00:05;7.05;;;6.32;;
28796;SDS011;24974;54.444;18.560;2022-09-09T08:02:42;10.88;;;6.47;;
28796;SDS011;24974;54.444;18.560;2022-09-09T08:05:14;8.23;;;6.38;;
28796;SDS011;24974;54.444;18.560;2022-09-09T08:07:48;10.63;;;6.75;;
28796;SDS011;24974;54.444;18.560;2022-09-09T08:10:19;12.07;;;6.65;;
28796;SDS011;24974;54.444;18.560;2022-09-09T08:12:52;8.15;;;6.10;;
28796;SDS011;24974;54.444;18.560;2022-09-09T08:15:23;8.98;;;5.95;;
28796;SDS011;24974;54.444;18.560;2022-09-09T08:17:55;9.45;;;6.00;;
28796;SDS011;24974;54.444;18.560;2022-09-09T08:20:27;9.10;;;5.97;;
28796;SDS011;24974;54.444;18.560;2022-09-09T08:22:58;8.43;;;6.10;;
28796;SDS011;24974;54.444;18.560;2022-09-09T08:25:29;6.88;;;5.85;;
28796;SDS011;24974;54.444;18.560;2022-09-09T08:28:00;9.65;;;6.75;;
28796;SDS011;24974;54.444;18.560;2022-09-09T08:30:33;7.93;;;5.55;;
28796;SDS011;24974;54.444;18.560;2022-09-09T08:33:04;8.00;;;5.82;;
28796;SDS011;24974;54.444;18.560;2022-09-09T08:35:35;10.00;;;5.78;;
28796;SDS011;24974;54.444;18.560;2022-09-09T08:38:07;8.38;;;5.80;;
28796;SDS011;24974;54.444;18.560;2022-09-09T08:40:38;10.25;;;6.00;;
28796;SDS011;24974;54.444;18.560;2022-09-09T08:43:20;6.40;;;5.70;;
28796;SDS011;24974;54.444;18.560;2022-09-09T08:46:04;13.85;;;5.93;;
28796;SDS011;24974;54.444;18.560;2022-09-09T08:51:29;11.70;;;7.32;;
28796;SDS011;24974;54.444;18.560;2022-09-09T08:54:04;13.75;;;7.20;;
28796;SDS011;24974;54.444;18.560;2022-09-09T08:56:36;9.65;;;6.53;;
28796;SDS011;24974;54.444;18.560;2022-09-09T08:59:16;10.52;;;7.15;;
28796;SDS011;24974;54.444;18.560;2022-09-09T09:01:51;10.85;;;6.60;;
28796;SDS011;24974;54.444;18.560;2022-09-09T09:04:54;9.43;;;7.15;;
28796;SDS011;24974;54.444;18.560;2022-09-09T09:10:45;8.18;;;6.63;;
28796;SDS011;24974;54.444;18.560;2022-09-09T09:16:18;9.73;;;7.45;;
28796;SDS011;24974;54.444;18.560;2022-09-09T09:18:57;9.15;;;6.95;;
28796;SDS011;24974;54.444;18.560;2022-09-09T09:21:36;7.60;;;6.60;;
28796;SDS011;24974;54.444;18.560;2022-09-09T09:24:24;10.35;;;6.80;;
28796;SDS011;24974;54.444;18.560;2022-09-09T09:27:13;10.63;;;7.43;;
28796;SDS011;24974;54.444;18.560;2022-09-09T09:29:52;10.18;;;6.88;;
28796;SDS011;24974;54.444;18.560;2022-09-09T09:32:30;10.40;;;6.65;;
28796;SDS011;24974;54.444;18.560;2022-09-09T09:35:06;9.10;;;7.53;;
28796;SDS011;24974;54.444;18.560;2022-09-09T09:37:42;10.30;;;7.63;;
28796;SDS011;24974;54.444;18.560;2022-09-09T09:40:17;10.30;;;7.32;;
28796;SDS011;24974;54.444;18.560;2022-09-09T09:42:53;10.15;;;8.15;;
28796;SDS011;24974;54.444;18.560;2022-09-09T09:45:31;11.05;;;7.85;;
28796;SDS011;24974;54.444;18.560;2022-09-09T09:48:09;14.77;;;7.90;;
28796;SDS011;24974;54.444;18.560;2022-09-09T09:50:50;10.60;;;8.50;;
28796;SDS011;24974;54.444;18.560;2022-09-09T09:53:26;9.52;;;8.30;;
28796;SDS011;24974;54.444;18.560;2022-09-09T09:58:51;12.02;;;8.63;;
28796;SDS011;24974;54.444;18.560;2022-09-09T10:01:31;10.63;;;8.50;;
28796;SDS011;24974;54.444;18.560;2022-09-09T10:06:52;10.75;;;8.73;;
28796;SDS011;24974;54.444;18.560;2022-09-09T10:09:31;13.98;;;9.70;;
28796;SDS011;24974;54.444;18.560;2022-09-09T10:12:12;10.60;;;8.55;;
28796;SDS011;24974;54.444;18.560;2022-09-09T10:14:49;12.55;;;9.88;;
28796;SDS011;24974;54.444;18.560;2022-09-09T10:20:22;13.55;;;9.98;;
28796;SDS011;24974;54.444;18.560;2022-09-09T10:23:16;11.73;;;9.65;;
28796;SDS011;24974;54.444;18.560;2022-09-09T10:28:33;11.35;;;9.80;;
28796;SDS011;24974;54.444;18.560;2022-09-09T10:31:33;11.25;;;10.05;;
28796;SDS011;24974;54.444;18.560;2022-09-09T10:37:22;15.88;;;10.52;;
28796;SDS011;24974;54.444;18.560;2022-09-09T10:40:20;17.02;;;11.63;;
28796;SDS011;24974;54.444;18.560;2022-09-09T10:45:54;15.90;;;11.18;;
28796;SDS011;24974;54.444;18.560;2022-09-09T10:48:50;15.48;;;10.95;;
28796;SDS011;24974;54.444;18.560;2022-09-09T10:51:45;15.98;;;11.65;;
28796;SDS011;24974;54.444;18.560;2022-09-09T11:00:47;15.52;;;12.13;;
28796;SDS011;24974;54.444;18.560;2022-09-09T11:03:24;17.70;;;13.05;;
28796;SDS011;24974;54.444;18.560;2022-09-09T11:06:04;14.65;;;12.50;;
28796;SDS011;24974;54.444;18.560;2022-09-09T11:08:41;17.33;;;12.20;;
28796;SDS011;24974;54.444;18.560;2022-09-09T11:11:14;19.25;;;12.32;;
28796;SDS011;24974;54.444;18.560;2022-09-09T11:16:50;17.45;;;11.45;;
28796;SDS011;24974;54.444;18.560;2022-09-09T11:19:43;16.27;;;12.02;;
28796;SDS011;24974;54.444;18.560;2022-09-09T11:27:39;20.08;;;13.27;;
28796;SDS011;24974;54.444;18.560;2022-09-09T11:30:23;18.55;;;11.35;;
28796;SDS011;24974;54.444;18.560;2022-09-09T11:41:46;13.75;;;11.63;;
28796;SDS011;24974;54.444;18.560;2022-09-09T11:44:19;17.63;;;11.63;;
28796;SDS011;24974;54.444;18.560;2022-09-09T11:46:58;15.77;;;11.35;;
28796;SDS011;24974;54.444;18.560;2022-09-09T11:49:42;16.08;;;11.32;;
28796;SDS011;24974;54.444;18.560;2022-09-09T11:52:24;17.67;;;11.90;;
28796;SDS011;24974;54.444;18.560;2022-09-09T11:55:10;18.92;;;13.40;;
28796;SDS011;24974;54.444;18.560;2022-09-09T11:58:01;18.05;;;12.60;;
28796;SDS011;24974;54.444;18.560;2022-09-09T12:00:38;15.57;;;11.10;;
28796;SDS011;24974;54.444;18.560;2022-09-09T12:06:24;18.48;;;11.98;;
28796;SDS011;24974;54.444;18.560;2022-09-09T12:11:50;16.80;;;12.20;;
28796;SDS011;24974;54.444;18.560;2022-09-09T12:14:22;16.67;;;12.85;;
28796;SDS011;24974;54.444;18.560;2022-09-09T12:19:44;16.55;;;12.43;;
28796;SDS011;24974;54.444;18.560;2022-09-09T12:33:22;14.60;;;10.13;;
28796;SDS011;24974;54.444;18.560;2022-09-09T12:35:54;18.77;;;11.55;;
28796;SDS011;24974;54.444;18.560;2022-09-09T12:38:45;12.93;;;10.65;;
28796;SDS011;24974;54.444;18.560;2022-09-09T12:41:21;19.20;;;10.93;;
28796;SDS011;24974;54.444;18.560;2022-09-09T12:44:08;12.45;;;10.30;;
28796;SDS011;24974;54.444;18.560;2022-09-09T12:46:41;12.65;;;10.85;;
28796;SDS011;24974;54.444;18.560;2022-09-09T12:52:44;14.65;;;11.60;;
28796;SDS011;24974;54.444;18.560;2022-09-09T12:55:15;18.77;;;11.15;;
28796;SDS011;24974;54.444;18.560;2022-09-09T12:57:55;14.35;;;10.75;;
28796;SDS011;24974;54.444;18.560;2022-09-09T13:00:29;17.30;;;11.55;;
28796;SDS011;24974;54.444;18.560;2022-09-09T13:03:03;16.67;;;11.80;;
28796;SDS011;24974;54.444;18.560;2022-09-09T13:05:48;14.85;;;11.82;;
28796;SDS011;24974;54.444;18.560;2022-09-09T13:08:21;13.13;;;10.43;;
28796;SDS011;24974;54.444;18.560;2022-09-09T13:10:53;18.30;;;13.10;;
28796;SDS011;24974;54.444;18.560;2022-09-09T13:13:40;70.10;;;47.30;;
28796;SDS011;24974;54.444;18.560;2022-09-09T13:16:53;31.10;;;22.73;;
28796;SDS011;24974;54.444;18.560;2022-09-09T13:19:13;15.38;;;13.77;;
28796;SDS011;24974;54.444;18.560;2022-09-09T13:21:46;17.23;;;13.90;;
28796;SDS011;24974;54.444;18.560;2022-09-09T13:30:01;17.25;;;13.15;;
28796;SDS011;24974;54.444;18.560;2022-09-09T13:32:32;13.88;;;11.50;;
28796;SDS011;24974;54.444;18.560;2022-09-09T13:35:03;14.90;;;11.68;;
28796;SDS011;24974;54.444;18.560;2022-09-09T13:37:35;14.20;;;11.88;;
28796;SDS011;24974;54.444;18.560;2022-09-09T13:40:18;13.20;;;11.73;;
28796;SDS011;24974;54.444;18.560;2022-09-09T13:42:52;13.70;;;11.88;;
28796;SDS011;24974;54.444;18.560;2022-09-09T13:45:26;14.93;;;12.65;;
28796;SDS011;24974;54.444;18.560;2022-09-09T13:47:57;14.18;;;12.50;;
28796;SDS011;24974;54.444;18.560;2022-09-09T13:50:39;20.65;;;17.48;;
28796;SDS011;24974;54.444;18.560;2022-09-09T13:53:11;29.73;;;21.42;;
28796;SDS011;24974;54.444;18.560;2022-09-09T13:55:43;20.92;;;16.30;;
28796;SDS011;24974;54.444;18.560;2022-09-09T13:58:15;19.25;;;14.38;;
28796;SDS011;24974;54.444;18.560;2022-09-09T14:00:49;17.20;;;13.15;;
28796;SDS011;24974;54.444;18.560;2022-09-09T14:03:20;15.98;;;12.45;;
28796;SDS011;24974;54.444;18.560;2022-09-09T14:05:52;15.00;;;13.40;;
28796;SDS011;24974;54.444;18.560;2022-09-09T14:08:25;16.75;;;14.10;;
28796;SDS011;24974;54.444;18.560;2022-09-09T14:10:57;18.35;;;13.85;;
28796;SDS011;24974;54.444;18.560;2022-09-09T14:13:28;19.00;;;14.38;;
28796;SDS011;24974;54.444;18.560;2022-09-09T14:15:59;17.52;;;15.63;;
28796;SDS011;24974;54.444;18.560;2022-09-09T14:18:30;19.77;;;16.13;;
28796;SDS011;24974;54.444;18.560;2022-09-09T14:21:01;20.90;;;15.32;;
28796;SDS011;24974;54.444;18.560;2022-09-09T14:23:33;17.25;;;15.55;;
28796;SDS011;24974;54.444;18.560;2022-09-09T14:26:07;17.30;;;15.25;;
28796;SDS011;24974;54.444;18.560;2022-09-09T14:28:38;18.90;;;14.43;;
28796;SDS011;24974;54.444;18.560;2022-09-09T14:31:10;19.35;;;15.05;;
28796;SDS011;24974;54.444;18.560;2022-09-09T14:33:43;19.92;;;15.43;;
28796;SDS011;24974;54.444;18.560;2022-09-09T14:36:15;28.10;;;16.73;;
28796;SDS011;24974;54.444;18.560;2022-09-09T14:38:45;23.27;;;15.85;;
28796;SDS011;24974;54.444;18.560;2022-09-09T14:41:18;24.27;;;16.30;;
28796;SDS011;24974;54.444;18.560;2022-09-09T14:43:50;18.83;;;16.08;;
28796;SDS011;24974;54.444;18.560;2022-09-09T14:46:22;21.38;;;16.27;;
28796;SDS011;24974;54.444;18.560;2022-09-09T14:48:53;24.60;;;17.17;;
28796;SDS011;24974;54.444;18.560;2022-09-09T14:51:24;25.58;;;17.60;;
28796;SDS011;24974;54.444;18.560;2022-09-09T14:53:58;20.55;;;16.15;;
28796;SDS011;24974;54.444;18.560;2022-09-09T14:56:30;24.77;;;16.98;;
28796;SDS011;24974;54.444;18.560;2022-09-09T14:59:04;23.05;;;15.95;;
28796;SDS011;24974;54.444;18.560;2022-09-09T15:01:35;21.05;;;16.85;;
28796;SDS011;24974;54.444;18.560;2022-09-09T15:04:06;24.52;;;17.77;;
28796;SDS011;24974;54.444;18.560;2022-09-09T15:06:38;22.10;;;17.05;;
28796;SDS011;24974;54.444;18.560;2022-09-09T15:09:09;25.65;;;19.45;;
28796;SDS011;24974;54.444;18.560;2022-09-09T15:11:40;24.15;;;17.95;;
28796;SDS011;24974;54.444;18.560;2022-09-09T15:14:11;25.58;;;19.25;;
28796;SDS011;24974;54.444;18.560;2022-09-09T15:16:42;27.63;;;20.90;;
28796;SDS011;24974;54.444;18.560;2022-09-09T15:19:13;29.63;;;19.85;;
28796;SDS011;24974;54.444;18.560;2022-09-09T15:21:44;35.65;;;24.10;;
28796;SDS011;24974;54.444;18.560;2022-09-09T15:24:15;30.45;;;21.25;;
28796;SDS011;24974;54.444;18.560;2022-09-09T15:26:46;25.35;;;20.08;;
28796;SDS011;24974;54.444;18.560;2022-09-09T15:29:17;28.63;;;20.35;;
28796;SDS011;24974;54.444;18.560;2022-09-09T15:31:49;29.40;;;21.92;;
28796;SDS011;24974;54.444;18.560;2022-09-09T15:34:20;32.42;;;22.00;;
28796;SDS011;24974;54.444;18.560;2022-09-09T15:36:52;28.25;;;21.65;;
28796;SDS011;24974;54.444;18.560;2022-09-09T15:39:23;28.60;;;21.33;;
28796;SDS011;24974;54.444;18.560;2022-09-09T15:41:54;28.80;;;21.70;;
28796;SDS011;24974;54.444;18.560;2022-09-09T15:44:25;30.48;;;22.50;;
28796;SDS011;24974;54.444;18.560;2022-09-09T15:46:56;30.13;;;22.70;;
28796;SDS011;24974;54.444;18.560;2022-09-09T15:49:27;27.65;;;23.25;;
28796;SDS011;24974;54.444;18.560;2022-09-09T15:51:59;29.40;;;22.92;;
28796;SDS011;24974;54.444;18.560;2022-09-09T15:54:34;28.27;;;22.50;;
28796;SDS011;24974;54.444;18.560;2022-09-09T15:57:10;30.05;;;23.08;;
28796;SDS011;24974;54.444;18.560;2022-09-09T15:59:42;31.33;;;23.10;;
28796;SDS011;24974;54.444;18.560;2022-09-09T16:02:13;36.65;;;23.63;;
28796;SDS011;24974;54.444;18.560;2022-09-09T16:04:44;25.67;;;22.88;;
28796;SDS011;24974;54.444;18.560;2022-09-09T16:07:15;32.35;;;22.58;;
28796;SDS011;24974;54.444;18.560;2022-09-09T16:09:46;27.33;;;22.40;;
28796;SDS011;24974;54.444;18.560;2022-09-09T16:12:16;31.13;;;22.77;;
28796;SDS011;24974;54.444;18.560;2022-09-09T16:14:47;30.42;;;23.35;;
28796;SDS011;24974;54.444;18.560;2022-09-09T16:17:18;29.00;;;22.25;;
28796;SDS011;24974;54.444;18.560;2022-09-09T16:19:50;30.13;;;21.33;;
28796;SDS011;24974;54.444;18.560;2022-09-09T16:22:21;29.60;;;23.67;;
28796;SDS011;24974;54.444;18.560;2022-09-09T16:24:52;31.75;;;25.20;;
28796;SDS011;24974;54.444;18.560;2022-09-09T16:27:22;33.10;;;23.42;;
28796;SDS011;24974;54.444;18.560;2022-09-09T16:29:53;29.35;;;23.33;;
28796;SDS011;24974;54.444;18.560;2022-09-09T16:32:24;31.17;;;24.02;;
28796;SDS011;24974;54.444;18.560;2022-09-09T16:34:55;33.08;;;24.45;;
28796;SDS011;24974;54.444;18.560;2022-09-09T16:37:26;35.17;;;24.30;;
28796;SDS011;24974;54.444;18.560;2022-09-09T16:39:57;34.60;;;23.30;;
28796;SDS011;24974;54.444;18.560;2022-09-09T16:42:28;33.47;;;25.00;;
28796;SDS011;24974;54.444;18.560;2022-09-09T16:44:59;33.78;;;25.88;;
28796;SDS011;24974;54.444;18.560;2022-09-09T16:47:30;34.95;;;25.88;;
28796;SDS011;24974;54.444;18.560;2022-09-09T16:50:01;30.92;;;25.98;;
28796;SDS011;24974;54.444;18.560;2022-09-09T16:52:32;39.15;;;29.13;;
28796;SDS011;24974;54.444;18.560;2022-09-09T16:55:02;33.63;;;26.65;;
28796;SDS011;24974;54.444;18.560;2022-09-09T16:57:34;35.33;;;25.42;;
28796;SDS011;24974;54.444;18.560;2022-09-09T17:00:05;36.35;;;26.70;;
28796;SDS011;24974;54.444;18.560;2022-09-09T17:02:37;34.50;;;26.70;;
28796;SDS011;24974;54.444;18.560;2022-09-09T17:05:08;36.13;;;28.42;;
28796;SDS011;24974;54.444;18.560;2022-09-09T17:07:39;36.60;;;27.67;;
28796;SDS011;24974;54.444;18.560;2022-09-09T17:10:10;38.75;;;28.42;;
28796;SDS011;24974;54.444;18.560;2022-09-09T17:12:41;41.78;;;28.52;;
28796;SDS011;24974;54.444;18.560;2022-09-09T17:15:12;38.25;;;27.77;;
28796;SDS011;24974;54.444;18.560;2022-09-09T17:17:43;40.22;;;28.95;;
28796;SDS011;24974;54.444;18.560;2022-09-09T17:20:15;40.13;;;28.38;;
28796;SDS011;24974;54.444;18.560;2022-09-09T17:22:46;40.60;;;29.92;;
28796;SDS011;24974;54.444;18.560;2022-09-09T17:25:19;41.50;;;30.08;;
28796;SDS011;24974;54.444;18.560;2022-09-09T17:27:50;45.28;;;31.05;;
28796;SDS011;24974;54.444;18.560;2022-09-09T17:30:21;43.63;;;30.95;;
28796;SDS011;24974;54.444;18.560;2022-09-09T17:32:53;43.08;;;30.67;;
28796;SDS011;24974;54.444;18.560;2022-09-09T17:35:23;48.22;;;32.03;;
28796;SDS011;24974;54.444;18.560;2022-09-09T17:37:54;46.78;;;32.10;;
28796;SDS011;24974;54.444;18.560;2022-09-09T17:40:26;46.00;;;33.55;;
28796;SDS011;24974;54.444;18.560;2022-09-09T17:42:57;53.47;;;34.60;;
28796;SDS011;24974;54.444;18.560;2022-09-09T17:45:28;49.50;;;34.38;;
28796;SDS011;24974;54.444;18.560;2022-09-09T17:48:00;50.50;;;35.28;;
28796;SDS011;24974;54.444;18.560;2022-09-09T17:50:32;57.97;;;36.42;;
28796;SDS011;24974;54.444;18.560;2022-09-09T17:53:04;54.88;;;38.95;;
28796;SDS011;24974;54.444;18.560;2022-09-09T17:55:35;60.90;;;38.40;;
28796;SDS011;24974;54.444;18.560;2022-09-09T17:58:05;54.67;;;38.53;;
28796;SDS011;24974;54.444;18.560;2022-09-09T18:00:36;51.00;;;34.83;;
28796;SDS011;24974;54.444;18.560;2022-09-09T18:03:07;74.82;;;51.63;;
28796;SDS011;24974;54.444;18.560;2022-09-09T18:05:39;51.67;;;35.83;;
28796;SDS011;24974;54.444;18.560;2022-09-09T18:08:10;49.88;;;36.70;;
28796;SDS011;24974;54.444;18.560;2022-09-09T18:10:41;55.72;;;37.10;;
28796;SDS011;24974;54.444;18.560;2022-09-09T18:13:13;57.83;;;37.35;;
28796;SDS011;24974;54.444;18.560;2022-09-09T18:15:47;57.00;;;39.78;;
28796;SDS011;24974;54.444;18.560;2022-09-09T18:18:17;58.88;;;40.80;;
28796;SDS011;24974;54.444;18.560;2022-09-09T18:20:58;52.20;;;37.83;;
28796;SDS011;24974;54.444;18.560;2022-09-09T18:23:34;58.80;;;39.83;;
28796;SDS011;24974;54.444;18.560;2022-09-09T18:26:09;58.95;;;40.75;;
28796;SDS011;24974;54.444;18.560;2022-09-09T18:28:43;59.28;;;40.78;;
28796;SDS011;24974;54.444;18.560;2022-09-09T18:31:19;52.88;;;39.05;;
28796;SDS011;24974;54.444;18.560;2022-09-09T18:33:52;58.63;;;40.35;;
28796;SDS011;24974;54.444;18.560;2022-09-09T18:36:26;54.70;;;40.90;;
28796;SDS011;24974;54.444;18.560;2022-09-09T18:39:08;56.67;;;41.78;;
28796;SDS011;24974;54.444;18.560;2022-09-09T18:41:48;57.28;;;40.88;;
28796;SDS011;24974;54.444;18.560;2022-09-09T18:44:22;60.33;;;42.38;;
28796;SDS011;24974;54.444;18.560;2022-09-09T18:46:56;62.40;;;43.35;;
28796;SDS011;24974;54.444;18.560;2022-09-09T18:49:27;63.25;;;43.30;;
28796;SDS011;24974;54.444;18.560;2022-09-09T18:51:58;60.30;;;42.88;;
28796;SDS011;24974;54.444;18.560;2022-09-09T18:54:29;58.50;;;42.08;;
28796;SDS011;24974;54.444;18.560;2022-09-09T18:57:03;61.80;;;43.58;;
28796;SDS011;24974;54.444;18.560;2022-09-09T18:59:35;62.88;;;43.15;;
28796;SDS011;24974;54.444;18.560;2022-09-09T19:02:06;63.88;;;43.75;;
28796;SDS011;24974;54.444;18.560;2022-09-09T19:04:37;60.28;;;43.28;;
28796;SDS011;24974;54.444;18.560;2022-09-09T19:07:08;64.90;;;44.80;;
28796;SDS011;24974;54.444;18.560;2022-09-09T19:09:40;62.40;;;43.28;;
28796;SDS011;24974;54.444;18.560;2022-09-09T19:12:11;62.45;;;44.20;;
28796;SDS011;24974;54.444;18.560;2022-09-09T19:14:42;60.42;;;45.13;;
28796;SDS011;24974;54.444;18.560;2022-09-09T19:17:13;58.35;;;42.60;;
28796;SDS011;24974;54.444;18.560;2022-09-09T19:19:44;58.45;;;44.42;;
28796;SDS011;24974;54.444;18.560;2022-09-09T19:22:15;61.30;;;45.05;;
28796;SDS011;24974;54.444;18.560;2022-09-09T19:24:46;60.15;;;44.80;;
28796;SDS011;24974;54.444;18.560;2022-09-09T19:27:17;62.25;;;43.53;;
28796;SDS011;24974;54.444;18.560;2022-09-09T19:29:48;61.35;;;44.83;;
28796;SDS011;24974;54.444;18.560;2022-09-09T19:32:19;58.17;;;44.45;;
28796;SDS011;24974;54.444;18.560;2022-09-09T19:34:50;55.42;;;42.75;;
28796;SDS011;24974;54.444;18.560;2022-09-09T19:37:21;53.47;;;42.63;;
28796;SDS011;24974;54.444;18.560;2022-09-09T19:39:52;63.05;;;43.67;;
28796;SDS011;24974;54.444;18.560;2022-09-09T19:42:23;56.53;;;42.25;;
28796;SDS011;24974;54.444;18.560;2022-09-09T19:44:54;54.70;;;41.53;;
28796;SDS011;24974;54.444;18.560;2022-09-09T19:47:26;52.85;;;42.55;;
28796;SDS011;24974;54.444;18.560;2022-09-09T19:49:57;56.83;;;42.03;;
28796;SDS011;24974;54.444;18.560;2022-09-09T19:52:28;58.30;;;40.72;;
28796;SDS011;24974;54.444;18.560;2022-09-09T19:54:59;47.03;;;40.03;;
28796;SDS011;24974;54.444;18.560;2022-09-09T19:57:30;48.00;;;38.97;;
28796;SDS011;24974;54.444;18.560;2022-09-09T20:00:01;49.78;;;40.60;;
28796;SDS011;24974;54.444;18.560;2022-09-09T20:02:42;49.83;;;37.83;;
28796;SDS011;24974;54.444;18.560;2022-09-09T20:05:13;47.30;;;38.88;;
28796;SDS011;24974;54.444;18.560;2022-09-09T20:07:44;65.05;;;50.45;;
28796;SDS011;24974;54.444;18.560;2022-09-09T20:10:15;48.60;;;40.28;;
28796;SDS011;24974;54.444;18.560;2022-09-09T20:12:46;53.47;;;41.22;;
28796;SDS011;24974;54.444;18.560;2022-09-09T20:15:17;50.80;;;39.83;;
28796;SDS011;24974;54.444;18.560;2022-09-09T20:17:48;49.28;;;39.35;;
